Dati Storici

Data ora Umidita' aria (%) Temperatura aria (°C) Rad globale (W/m²) Gonioanemometro (°) Tacoanemometro (m/s) Pioggia (mm)
05-04-2020 00:00 51.8 % 12.434 -77.594 1.212 0 0
04-04-2020 23:50 51.3 % 12.696 -75.952 1.959 0 0
04-04-2020 23:40 52.8 % 12.73 -76.013 1.86 0 0
04-04-2020 23:30 52.7 % 12.902 -79.585 1.084 0 0
04-04-2020 23:20 53.4 % 12.798 -79.059 2.157 0 0
04-04-2020 23:10 54.5 % 12.685 -80.704 1.472 0 0
04-04-2020 23:00 55.3 % 12.725 -82.199 0.661 0 0
04-04-2020 22:50 56.3 % 12.838 -75.611 1.753 0 0
04-04-2020 22:40 58.2 % 12.785 -81.137 1.073 0 0
04-04-2020 22:30 59.6 % 12.707 -72.43 0.335 0 0
04-04-2020 22:20 59.9 % 12.794 -75.019 1.457 0 0
04-04-2020 22:10 59.5 % 12.813 -69.353 1.508 0 0
04-04-2020 22:00 59 % 12.903 -58.352 1.875 0 0
04-04-2020 21:50 57.4 % 13.155 -67.422 2.09 0 0
04-04-2020 21:40 56.7 % 13.35 -72.175 2.027 0 0
04-04-2020 21:30 53.7 % 13.669 -73.697 1.783 0 0
04-04-2020 21:20 53.8 % 13.735 -74.909 2.619 0 0
04-04-2020 21:10 50.9 % 13.947 -77.816 1.85 0 0
04-04-2020 21:00 47.8 % 14.021 -77.058 2.526 0 0
04-04-2020 20:50 48.1 % 13.982 -77.657 2.274 0 0

I dati sono presentati in modo automatico a scopo informativo. In seguito a verifica i dati possono subire modifiche o essere invalidati e non riportati negli archivi definitivi.